Main page
METAR-TAF:

METAR-TAF

Airports :

Wittmundhafen Air Base

Wittmund, Germany

latitude: 53-33N, longitude: 007-40E, elevation: 8 m

Current weather observation

The report was made 18 minutes ago, at 19:20 UTC
Wind 12 kt from the East/Southeast
Temperature 3°C
Humidity 81%
Pressure 1026 hPa
Visibility: 7000 m

METAR: ETNT 281920Z AUTO 11012KT 7000 // ////// 03/00 Q1026 ///

Time: 20:38 (19:38 UTC)


TAF: missing

Weather observations and forecasts of more than 4000 airports (METAR and TAF reports).

The available stations are represented by yellow and red dots on the map.

Hover mouse over dot to see the name of the station.

Then click to see weather observations and forecasts.

To change the map : click on the green buttons with a black cross to zoom in, on the green button with a dash to zoom out, or on the green arrows for adjacent maps.


METAR-TAF: